createdAt,value
2018-05-18T04:11:23.977Z,11.8
2018-05-18T04:12:50.097Z,11.8
2018-05-18T04:13:51.819Z,11.7
2018-05-18T04:14:53.191Z,11.7
2018-05-18T04:15:54.651Z,11.6
2018-05-18T04:16:56.415Z,11.6
2018-05-18T04:17:57.853Z,11.6
2018-05-18T04:18:59.342Z,11.6
2018-05-18T04:20:00.901Z,11.6
2018-05-18T04:21:02.377Z,11.7
2018-05-18T04:22:03.851Z,11.7
2018-05-18T04:23:05.676Z,11.7
2018-05-18T04:24:07.110Z,11.8
2018-05-18T04:25:08.812Z,11.8
2018-05-18T04:26:10.321Z,11.9
2018-05-18T04:27:12.085Z,11.9
2018-05-18T04:28:13.584Z,11.9
2018-05-18T04:29:15.137Z,11.9
2018-05-18T04:30:16.840Z,11.9
2018-05-18T04:31:18.264Z,11.9
2018-05-18T04:32:19.748Z,11.9
2018-05-18T04:33:21.247Z,11.9
2018-05-18T04:34:22.655Z,11.9
2018-05-18T04:35:24.378Z,12.0
2018-05-18T04:36:26.062Z,11.9
2018-05-18T04:37:27.694Z,11.9
2018-05-18T04:38:29.209Z,11.9
2018-05-18T04:39:30.676Z,11.9
2018-05-18T04:40:32.438Z,11.9
2018-05-18T04:41:34.062Z,12.0
2018-05-18T04:42:35.702Z,11.9
2018-05-18T04:43:37.462Z,11.8
2018-05-18T04:44:39.199Z,11.9
2018-05-18T04:45:40.907Z,11.8
2018-05-18T04:46:42.583Z,11.7
2018-05-18T04:47:44.447Z,11.6
2018-05-18T04:48:46.125Z,11.6
2018-05-18T04:49:47.725Z,11.6
2018-05-18T04:50:49.202Z,11.4
2018-05-18T04:51:52.264Z,11.4
2018-05-18T04:52:53.765Z,11.5
2018-05-18T04:53:55.422Z,11.5
2018-05-18T04:54:56.898Z,11.5
2018-05-18T04:55:58.456Z,11.5
2018-05-18T04:57:00.178Z,11.6
2018-05-18T04:58:01.872Z,11.5
2018-05-18T04:59:03.594Z,11.7
2018-05-18T05:00:05.319Z,11.6
2018-05-18T05:01:06.742Z,11.6
2018-05-18T05:02:08.189Z,11.6
2018-05-18T05:03:09.779Z,11.6
2018-05-18T05:04:11.280Z,11.6
2018-05-18T05:05:12.837Z,11.7
2018-05-18T05:06:14.340Z,11.8
2018-05-18T05:07:15.844Z,11.8
2018-05-18T05:08:17.357Z,11.8
2018-05-18T05:09:18.847Z,11.8
2018-05-18T05:10:20.362Z,11.7
2018-05-18T05:11:21.826Z,11.5
2018-05-18T05:12:23.318Z,11.7
2018-05-18T05:13:24.846Z,11.6
2018-05-18T05:14:26.546Z,11.6
2018-05-18T05:15:28.210Z,11.5
2018-05-18T05:16:29.709Z,11.6
2018-05-18T05:17:31.189Z,11.5
2018-05-18T05:18:32.894Z,11.5
2018-05-18T05:19:34.637Z,11.4
2018-05-18T05:20:36.120Z,11.4
2018-05-18T05:21:37.567Z,11.4
2018-05-18T05:22:39.048Z,11.6
2018-05-18T05:23:40.807Z,11.4
2018-05-18T05:24:42.260Z,11.4
2018-05-18T05:25:43.997Z,11.5
2018-05-18T05:26:45.572Z,11.6
2018-05-18T05:27:47.046Z,11.5
2018-05-18T05:28:48.484Z,11.6
2018-05-18T05:29:49.934Z,11.6
2018-05-18T05:30:51.378Z,11.6
2018-05-18T05:31:52.842Z,11.6
2018-05-18T05:32:54.289Z,11.5
2018-05-18T05:33:55.757Z,11.4
2018-05-18T05:34:57.199Z,11.4
2018-05-18T05:35:58.626Z,11.4
2018-05-18T05:37:00.083Z,11.5
2018-05-18T05:38:01.529Z,11.5
2018-05-18T05:39:02.969Z,11.5
2018-05-18T05:40:04.423Z,11.5
2018-05-18T05:41:05.845Z,11.7
2018-05-18T05:42:07.269Z,11.7
2018-05-18T05:43:08.744Z,11.7
2018-05-18T05:44:10.172Z,11.8
2018-05-18T05:45:11.634Z,11.7
2018-05-18T05:46:13.099Z,11.8
2018-05-18T05:47:14.563Z,11.8
2018-05-18T05:48:16.026Z,11.9
2018-05-18T05:49:17.446Z,11.8
2018-05-18T05:50:18.927Z,11.8
2018-05-18T05:51:20.423Z,11.9
2018-05-18T05:52:22.182Z,11.9
2018-05-18T05:53:23.687Z,11.9
2018-05-18T05:54:25.121Z,12.0
2018-05-18T05:55:26.577Z,12.1
2018-05-18T05:56:28.036Z,12.0
2018-05-18T05:57:29.459Z,12.2
2018-05-18T05:58:30.916Z,12.2
2018-05-18T05:59:32.378Z,12.2
2018-05-18T06:00:33.837Z,12.2
2018-05-18T06:01:35.308Z,12.2
2018-05-18T06:02:36.735Z,12.2
2018-05-18T06:03:38.278Z,12.2
2018-05-18T06:04:39.733Z,12.2
2018-05-18T06:05:41.193Z,12.3
2018-05-18T06:06:42.704Z,12.3
2018-05-18T06:07:44.126Z,12.4
2018-05-18T06:08:45.730Z,12.4
2018-05-18T06:09:47.188Z,12.5
2018-05-18T06:10:48.666Z,12.6
2018-05-18T06:11:50.116Z,12.5
2018-05-18T06:12:51.695Z,12.5
2018-05-18T06:13:53.133Z,12.5
2018-05-18T06:14:54.605Z,12.5
2018-05-18T06:15:56.105Z,12.5
2018-05-18T06:16:57.632Z,12.5
2018-05-18T06:17:59.055Z,12.5
2018-05-18T06:19:00.527Z,12.5
2018-05-18T06:20:01.969Z,12.5
2018-05-18T06:21:03.426Z,12.5
2018-05-18T06:22:04.867Z,12.5
2018-05-18T06:23:06.294Z,12.5
2018-05-18T06:24:07.726Z,12.5
2018-05-18T06:25:09.187Z,12.6
2018-05-18T06:26:10.613Z,12.6
2018-05-18T06:27:12.120Z,12.6
2018-05-18T06:28:13.602Z,12.7
2018-05-18T06:29:15.141Z,12.6
2018-05-18T06:30:16.604Z,12.6
2018-05-18T06:31:18.006Z,12.7
2018-05-18T06:32:19.437Z,12.5
2018-05-18T06:33:20.917Z,12.6
2018-05-18T06:34:22.366Z,12.7
2018-05-18T06:35:23.815Z,12.6
2018-05-18T06:36:25.275Z,12.7
2018-05-18T06:37:26.708Z,12.7
2018-05-18T06:38:28.332Z,12.7
2018-05-18T06:39:29.742Z,12.7
2018-05-18T06:40:31.158Z,12.7
2018-05-18T06:41:32.666Z,12.7
2018-05-18T06:42:34.131Z,12.7
2018-05-18T06:43:35.539Z,12.7
2018-05-18T06:44:37.059Z,12.7
2018-05-18T06:45:38.543Z,12.8
2018-05-18T06:46:39.997Z,12.7
2018-05-18T06:47:41.484Z,12.7
2018-05-18T06:48:43.048Z,12.8
2018-05-18T06:49:44.542Z,12.7
2018-05-18T06:50:46.002Z,12.7
2018-05-18T06:51:47.420Z,12.7
2018-05-18T06:52:48.863Z,12.8
2018-05-18T06:53:50.355Z,12.9
2018-05-18T06:54:51.820Z,12.9
2018-05-18T06:55:53.348Z,12.9
2018-05-18T06:56:54.763Z,13.0
2018-05-18T06:57:56.206Z,13.0
2018-05-18T06:58:57.640Z,13.0
2018-05-18T06:59:59.213Z,13.0
2018-05-18T07:01:00.681Z,13.1
2018-05-18T07:02:02.207Z,13.1
2018-05-18T07:03:03.627Z,13.2
2018-05-18T07:04:05.163Z,13.3
2018-05-18T07:05:06.516Z,13.2
2018-05-18T07:06:07.980Z,13.3
2018-05-18T07:07:09.412Z,13.3
2018-05-18T07:08:10.856Z,13.3
2018-05-18T07:09:12.288Z,13.3
2018-05-18T07:10:13.737Z,13.3
2018-05-18T07:11:15.149Z,13.4
2018-05-18T07:12:16.837Z,13.3
2018-05-18T07:13:18.562Z,13.4
2018-05-18T07:14:20.299Z,13.3
2018-05-18T07:15:21.773Z,13.3
2018-05-18T07:16:23.200Z,13.2
2018-05-18T07:17:24.692Z,13.3
2018-05-18T07:18:26.156Z,13.2
2018-05-18T07:19:27.608Z,13.3
2018-05-18T07:20:29.146Z,13.1
2018-05-18T07:21:30.704Z,13.2
2018-05-18T07:22:32.142Z,13.3
2018-05-18T07:23:33.619Z,13.3
2018-05-18T07:24:35.039Z,13.5
2018-05-18T07:25:36.493Z,13.4
2018-05-18T07:26:37.950Z,13.4
2018-05-18T07:27:39.383Z,13.3
2018-05-18T07:28:40.830Z,13.2
2018-05-18T07:29:42.264Z,13.2
2018-05-18T07:30:43.692Z,13.2
2018-05-18T07:31:45.118Z,13.3
2018-05-18T07:32:46.579Z,13.3
2018-05-18T07:33:48.019Z,13.4
2018-05-18T07:34:49.449Z,13.4
2018-05-18T07:35:50.892Z,13.2
2018-05-18T07:36:52.415Z,13.3
2018-05-18T07:37:53.853Z,13.2
2018-05-18T07:38:55.335Z,13.3
2018-05-18T07:39:56.793Z,13.3
2018-05-18T07:40:58.233Z,13.4
2018-05-18T07:41:59.697Z,13.4
2018-05-18T07:43:01.182Z,13.3
2018-05-18T07:44:02.608Z,13.3
2018-05-18T07:45:04.080Z,13.3
2018-05-18T07:46:05.560Z,13.4
2018-05-18T07:47:06.997Z,13.8
2018-05-18T07:48:08.510Z,14.0
2018-05-18T07:49:09.985Z,14.3
2018-05-18T07:50:11.401Z,14.5
2018-05-18T07:51:12.820Z,14.7
2018-05-18T07:52:14.308Z,14.8
2018-05-18T07:53:15.724Z,15.0
2018-05-18T07:54:17.186Z,15.3
2018-05-18T07:55:18.626Z,15.5
2018-05-18T07:56:20.125Z,15.6
2018-05-18T07:57:21.756Z,15.8
2018-05-18T07:58:23.255Z,15.6
2018-05-18T07:59:24.779Z,15.8
2018-05-18T08:00:26.188Z,16.0
2018-05-18T08:01:27.691Z,15.8
2018-05-18T08:02:29.348Z,15.7
2018-05-18T08:03:30.846Z,15.9
2018-05-18T08:04:32.315Z,15.9
2018-05-18T08:05:33.770Z,15.9
2018-05-18T08:06:35.233Z,16.0
2018-05-18T08:07:36.651Z,16.1
2018-05-18T08:08:38.120Z,15.9
2018-05-18T08:09:39.582Z,15.7
2018-05-18T08:10:41.103Z,15.5
2018-05-18T08:11:42.581Z,15.3
2018-05-18T08:12:44.002Z,15.4
2018-05-18T08:13:45.442Z,15.3
2018-05-18T08:14:46.927Z,15.7
2018-05-18T08:15:48.444Z,15.8
2018-05-18T08:16:49.960Z,15.8
2018-05-18T08:17:51.386Z,16.0
2018-05-18T08:18:52.838Z,16.0
2018-05-18T08:19:54.289Z,16.1
2018-05-18T08:20:55.743Z,16.2
2018-05-18T08:21:57.240Z,16.4
2018-05-18T08:22:58.676Z,16.7
2018-05-18T08:24:00.122Z,16.8
2018-05-18T08:25:01.578Z,16.8
2018-05-18T08:26:03.009Z,17.0
2018-05-18T08:27:04.575Z,16.9
2018-05-18T08:28:06.034Z,16.8
2018-05-18T08:29:07.490Z,16.6
2018-05-18T08:30:08.925Z,16.6
2018-05-18T08:31:10.599Z,16.8
2018-05-18T08:32:12.076Z,16.7
2018-05-18T08:33:13.705Z,16.6
2018-05-18T08:34:15.181Z,16.7
2018-05-18T08:35:16.613Z,16.6
2018-05-18T08:36:18.124Z,16.4
2018-05-18T08:37:19.547Z,16.3
2018-05-18T08:38:21.034Z,16.2
2018-05-18T08:39:22.511Z,16.1
2018-05-18T08:40:24.124Z,16.1
2018-05-18T08:41:25.559Z,16.2
2018-05-18T08:42:27.131Z,16.2
2018-05-18T08:43:28.655Z,16.4
2018-05-18T08:44:30.180Z,16.5
2018-05-18T08:45:31.530Z,16.7
2018-05-18T08:46:33.114Z,16.8
2018-05-18T08:47:34.573Z,16.9
2018-05-18T08:48:36.040Z,16.9
2018-05-18T08:49:37.507Z,16.9
2018-05-18T08:50:38.988Z,16.6
2018-05-18T08:51:40.438Z,16.7
2018-05-18T08:52:41.996Z,16.9
2018-05-18T08:53:43.489Z,17.3
2018-05-18T08:54:44.958Z,17.9
2018-05-18T08:55:46.485Z,18.1
2018-05-18T08:56:47.918Z,18.4
2018-05-18T08:57:49.375Z,18.5
2018-05-18T08:58:50.797Z,18.6
2018-05-18T08:59:52.271Z,19.0
2018-05-18T09:00:53.797Z,19.2
2018-05-18T09:01:55.271Z,19.7
2018-05-18T09:02:56.753Z,19.9
2018-05-18T09:03:58.243Z,20.1
2018-05-18T09:04:59.723Z,19.6
2018-05-18T09:06:01.218Z,19.4
2018-05-18T09:07:02.678Z,19.6
2018-05-18T09:08:04.110Z,19.7
2018-05-18T09:09:05.591Z,19.9
2018-05-18T09:10:07.142Z,20.4
2018-05-18T09:11:08.767Z,20.9
2018-05-18T09:12:10.273Z,21.4
2018-05-18T09:13:11.726Z,21.5
2018-05-18T09:14:13.168Z,21.3
2018-05-18T09:15:14.641Z,21.2
2018-05-18T09:16:16.130Z,20.7
2018-05-18T09:17:17.577Z,20.1
2018-05-18T09:18:19.050Z,19.8
2018-05-18T09:19:20.516Z,19.7
2018-05-18T09:20:21.962Z,19.7
2018-05-18T09:21:23.962Z,19.8
2018-05-18T09:22:25.613Z,19.9
2018-05-18T09:23:27.154Z,19.8
2018-05-18T09:24:28.798Z,20.4
2018-05-18T09:25:30.280Z,21.0
2018-05-18T09:26:31.812Z,21.3
2018-05-18T09:27:33.224Z,21.8
2018-05-18T09:28:34.671Z,21.7
2018-05-18T09:29:36.123Z,21.2
2018-05-18T09:30:37.591Z,20.9
2018-05-18T09:31:39.221Z,21.1
2018-05-18T09:32:40.661Z,21.5
2018-05-18T09:33:42.191Z,21.8
2018-05-18T09:34:43.723Z,22.2
2018-05-18T09:35:45.258Z,22.6
2018-05-18T09:36:46.767Z,23.0
2018-05-18T09:37:48.253Z,23.3
2018-05-18T09:38:49.788Z,23.7
2018-05-18T09:39:51.315Z,24.1
2018-05-18T09:40:52.843Z,24.1
2018-05-18T09:41:54.435Z,24.0
2018-05-18T09:42:55.933Z,24.1
2018-05-18T09:43:57.381Z,24.6
2018-05-18T09:44:58.828Z,24.5
2018-05-18T09:46:00.268Z,24.9
2018-05-18T09:47:01.701Z,25.1
2018-05-18T09:48:03.151Z,24.8
2018-05-18T09:49:04.716Z,25.2
2018-05-18T09:50:06.184Z,25.5
2018-05-18T09:51:07.659Z,25.4
2018-05-18T09:52:09.291Z,25.4
2018-05-18T09:53:10.764Z,25.6
2018-05-18T09:54:12.310Z,25.0
2018-05-18T09:55:13.950Z,25.2
2018-05-18T09:56:15.147Z,25.3
2018-05-18T09:57:16.628Z,25.3
2018-05-18T09:58:18.231Z,25.5
2018-05-18T09:59:19.741Z,25.3
2018-05-18T10:00:21.173Z,25.2
2018-05-18T10:01:22.636Z,24.8
2018-05-18T10:02:24.278Z,24.8
2018-05-18T10:03:25.712Z,24.8
2018-05-18T10:04:27.138Z,25.1
2018-05-18T10:05:28.642Z,25.2
2018-05-18T10:06:30.163Z,24.5
2018-05-18T10:07:31.647Z,24.5
2018-05-18T10:08:33.235Z,24.4
2018-05-18T10:09:34.700Z,23.9
2018-05-18T10:10:36.198Z,23.9
2018-05-18T10:11:37.652Z,24.2
2018-05-18T10:12:39.113Z,24.2
2018-05-18T10:13:40.615Z,24.6
2018-05-18T10:14:42.119Z,24.2
2018-05-18T10:15:43.565Z,24.4
2018-05-18T10:16:45.225Z,24.1
2018-05-18T10:17:46.849Z,23.9
2018-05-18T10:18:48.329Z,23.7
2018-05-18T10:19:49.777Z,23.8
2018-05-18T10:20:51.237Z,23.9
2018-05-18T10:21:52.713Z,24.3
2018-05-18T10:22:54.190Z,24.2
2018-05-18T10:23:55.643Z,25.0
2018-05-18T10:24:57.163Z,25.3
2018-05-18T10:25:58.686Z,25.1
2018-05-18T10:27:00.167Z,25.4
2018-05-18T10:28:01.635Z,25.3
2018-05-18T10:29:03.151Z,25.2
2018-05-18T10:30:04.660Z,24.8
2018-05-18T10:31:06.063Z,24.9
2018-05-18T10:32:07.586Z,25.1
2018-05-18T10:33:09.063Z,24.9
2018-05-18T10:34:10.525Z,24.6
2018-05-18T10:35:11.975Z,24.6
2018-05-18T10:36:13.422Z,24.3
2018-05-18T10:37:14.989Z,23.8
2018-05-18T10:38:16.470Z,23.9
2018-05-18T10:39:18.039Z,23.9
2018-05-18T10:40:19.538Z,23.9
2018-05-18T10:41:21.033Z,24.0
2018-05-18T10:42:22.636Z,24.1
2018-05-18T10:43:24.350Z,24.5
2018-05-18T10:44:25.821Z,25.0
2018-05-18T10:45:27.419Z,25.0
2018-05-18T10:46:28.945Z,25.0
2018-05-18T10:47:30.579Z,24.9
2018-05-18T10:48:32.149Z,25.0
2018-05-18T10:49:33.691Z,25.6
2018-05-18T10:50:35.293Z,26.0
2018-05-18T10:51:36.760Z,25.7
2018-05-18T10:52:38.208Z,26.1
2018-05-18T10:53:39.771Z,26.2
2018-05-18T10:54:41.316Z,26.3
2018-05-18T10:55:42.861Z,26.4
2018-05-18T10:56:44.343Z,26.4
2018-05-18T10:57:45.829Z,26.8
2018-05-18T10:58:47.461Z,26.7
2018-05-18T10:59:49.017Z,26.6
2018-05-18T11:00:50.505Z,26.7
2018-05-18T11:01:52.121Z,25.9
2018-05-18T11:02:54.244Z,26.1
2018-05-18T11:03:55.709Z,26.7
2018-05-18T11:04:57.156Z,26.8
2018-05-18T11:05:58.700Z,27.2
2018-05-18T11:07:00.552Z,27.3
2018-05-18T11:08:02.108Z,27.5
2018-05-18T11:09:03.571Z,27.1
2018-05-18T11:10:05.093Z,26.6
2018-05-18T11:11:06.575Z,26.3
2018-05-18T11:12:08.077Z,26.6
2018-05-18T11:13:09.552Z,27.0
2018-05-18T11:14:11.099Z,26.8
2018-05-18T11:15:12.464Z,26.7
2018-05-18T11:16:13.997Z,26.7
2018-05-18T11:17:15.576Z,26.6
2018-05-18T11:18:17.197Z,27.1
2018-05-18T11:19:18.682Z,27.4
2018-05-18T11:20:20.152Z,27.3
2018-05-18T11:21:21.724Z,27.4
2018-05-18T11:22:23.196Z,27.1
2018-05-18T11:23:24.688Z,27.0
2018-05-18T11:24:26.221Z,26.3
2018-05-18T11:25:27.823Z,25.6
2018-05-18T11:26:29.292Z,25.5
2018-05-18T11:27:30.950Z,25.6
2018-05-18T11:28:32.479Z,26.0
2018-05-18T11:29:34.138Z,26.2
2018-05-18T11:30:35.576Z,26.5
2018-05-18T11:31:36.986Z,26.7
2018-05-18T11:32:38.420Z,27.2
2018-05-18T11:33:39.992Z,27.5
2018-05-18T11:34:41.475Z,27.5
2018-05-18T11:35:42.890Z,27.4
2018-05-18T11:36:44.339Z,27.3
2018-05-18T11:37:45.813Z,27.0
2018-05-18T11:38:47.311Z,26.5
2018-05-18T11:39:48.748Z,26.2
2018-05-18T11:40:50.212Z,26.3
2018-05-18T11:41:51.661Z,26.5
2018-05-18T11:42:53.159Z,26.4
2018-05-18T11:43:54.620Z,25.9
2018-05-18T11:44:56.247Z,25.5
2018-05-18T11:45:57.724Z,25.5
2018-05-18T11:46:59.156Z,25.6
2018-05-18T11:48:00.650Z,25.6
2018-05-18T11:49:02.092Z,26.1
2018-05-18T11:50:03.543Z,25.8
2018-05-18T11:51:05.149Z,26.1
2018-05-18T11:52:06.711Z,26.4
2018-05-18T11:53:08.186Z,26.7
2018-05-18T11:54:09.674Z,27.3
2018-05-18T11:55:11.129Z,27.6
2018-05-18T11:56:12.748Z,28.0
2018-05-18T11:57:14.151Z,28.1
2018-05-18T11:58:15.629Z,28.1
2018-05-18T11:59:17.089Z,28.3
2018-05-18T12:00:18.522Z,28.0
2018-05-18T12:01:20.118Z,28.4
2018-05-18T12:02:21.555Z,28.5
2018-05-18T12:03:23.013Z,28.8
2018-05-18T12:04:24.488Z,28.6
2018-05-18T12:05:25.983Z,28.5
2018-05-18T12:06:27.476Z,28.8
2018-05-18T12:07:29.078Z,29.1
2018-05-18T12:08:30.607Z,29.2
2018-05-18T12:09:32.315Z,28.8
2018-05-18T12:10:33.807Z,28.7
2018-05-18T12:11:35.320Z,28.1
2018-05-18T12:12:36.740Z,27.6
2018-05-18T12:13:38.215Z,27.8
2018-05-18T12:14:39.869Z,28.2
2018-05-18T12:15:41.338Z,28.4
2018-05-18T12:16:42.816Z,28.6
2018-05-18T12:17:44.269Z,28.5
2018-05-18T12:18:45.695Z,28.4
2018-05-18T12:19:47.317Z,28.7
2018-05-18T12:20:48.749Z,29.1
2018-05-18T12:21:50.190Z,29.1
2018-05-18T12:22:51.761Z,29.4
2018-05-18T12:23:53.290Z,29.3
2018-05-18T12:24:54.747Z,29.3
2018-05-18T12:25:56.267Z,29.4
2018-05-18T12:26:57.873Z,28.7
2018-05-18T12:27:59.525Z,28.7
2018-05-18T12:29:01.265Z,29.0
2018-05-18T12:30:02.995Z,29.1
2018-05-18T12:31:04.535Z,28.8
2018-05-18T12:32:06.032Z,28.4
2018-05-18T12:33:07.567Z,28.0
2018-05-18T12:34:09.104Z,27.9
2018-05-18T12:35:10.620Z,28.2
2018-05-18T12:36:12.207Z,28.6
2018-05-18T12:37:13.709Z,28.6
2018-05-18T12:38:15.498Z,28.7
2018-05-18T12:39:17.761Z,29.0
2018-05-18T12:40:19.202Z,28.7
2018-05-18T12:41:20.705Z,29.1
2018-05-18T12:42:22.230Z,29.3
2018-05-18T12:43:23.718Z,29.4
2018-05-18T12:44:25.322Z,29.3
2018-05-18T12:45:26.842Z,29.4
2018-05-18T12:46:28.319Z,29.7
2018-05-18T12:47:29.853Z,29.5
2018-05-18T12:48:31.322Z,29.2
2018-05-18T12:49:32.973Z,29.0
2018-05-18T12:50:34.444Z,28.8
2018-05-18T12:51:35.928Z,28.7
2018-05-18T12:52:37.424Z,29.0
2018-05-18T12:53:39.006Z,28.8
2018-05-18T12:54:40.498Z,29.2
2018-05-18T12:55:42.517Z,29.0
2018-05-18T12:56:44.004Z,29.0
2018-05-18T12:57:45.491Z,29.0
2018-05-18T12:58:46.968Z,29.2
2018-05-18T12:59:48.434Z,29.4
2018-05-18T13:00:49.948Z,29.3
2018-05-18T13:01:51.446Z,29.3
2018-05-18T13:02:53.049Z,29.0
2018-05-18T13:03:54.533Z,29.3
2018-05-18T13:04:56.113Z,29.3
2018-05-18T13:05:57.677Z,29.7
2018-05-18T13:06:59.167Z,29.9
2018-05-18T13:08:00.781Z,29.8
2018-05-18T13:09:02.234Z,29.6
2018-05-18T13:10:03.757Z,29.6
2018-05-18T13:11:05.284Z,29.9
2018-05-18T13:12:06.730Z,29.8
2018-05-18T13:13:08.882Z,29.6
2018-05-18T13:14:10.700Z,29.9
2018-05-18T13:15:13.784Z,29.6
2018-05-18T13:16:16.227Z,29.7
2018-05-18T13:17:19.304Z,29.6
2018-05-18T13:18:21.523Z,29.0
2018-05-18T13:19:23.225Z,29.3
2018-05-18T13:20:25.008Z,29.5
2018-05-18T13:21:27.410Z,29.6
2018-05-18T13:22:29.514Z,29.8
2018-05-18T13:23:31.577Z,29.3
2018-05-18T13:24:33.543Z,29.1
2018-05-18T13:25:35.427Z,28.4
2018-05-18T13:26:37.438Z,28.4
2018-05-18T13:27:39.301Z,28.4
2018-05-18T13:28:41.312Z,28.8
2018-05-18T13:29:43.147Z,28.9
2018-05-18T13:30:45.230Z,28.7
2018-05-18T13:31:47.022Z,28.5
2018-05-18T13:32:49.069Z,28.4
2018-05-18T13:33:51.233Z,28.3
2018-05-18T13:34:53.283Z,28.4
2018-05-18T13:35:55.501Z,28.6
2018-05-18T13:36:58.641Z,28.6
2018-05-18T13:38:00.902Z,28.8
2018-05-18T13:39:03.909Z,28.5
2018-05-18T13:40:06.108Z,28.3
2018-05-18T13:41:08.424Z,28.3
2018-05-18T13:42:10.480Z,28.5
2018-05-18T13:43:12.711Z,28.5
2018-05-18T13:44:14.710Z,28.5
2018-05-18T13:45:16.790Z,27.5
2018-05-18T13:46:18.973Z,27.2
2018-05-18T13:47:21.083Z,26.6
2018-05-18T13:48:23.252Z,26.8
2018-05-18T13:49:25.403Z,26.8
2018-05-18T13:50:27.468Z,27.3
2018-05-18T13:51:29.431Z,27.7
2018-05-18T13:52:31.624Z,27.9
2018-05-18T13:53:33.957Z,28.1
2018-05-18T13:54:36.275Z,28.2
2018-05-18T13:55:38.601Z,28.3
2018-05-18T13:56:41.324Z,28.7
2018-05-18T13:57:43.442Z,28.3
2018-05-18T13:58:45.276Z,28.7
2018-05-18T13:59:46.912Z,28.8
2018-05-18T14:00:48.665Z,29.1
2018-05-18T14:01:50.232Z,29.4
2018-05-18T14:02:51.940Z,29.4
2018-05-18T14:03:53.544Z,29.5
2018-05-18T14:04:55.043Z,29.6
2018-05-18T14:05:56.891Z,29.1
2018-05-18T14:06:58.508Z,29.1
2018-05-18T14:08:00.001Z,29.1
2018-05-18T14:09:01.416Z,29.1
2018-05-18T14:10:03.311Z,29.3
2018-05-18T14:11:05.295Z,29.6
2018-05-18T14:12:06.939Z,29.7
2018-05-18T14:13:08.371Z,29.5
2018-05-18T14:14:09.986Z,29.3
2018-05-18T14:15:11.739Z,29.2
2018-05-18T14:16:13.193Z,29.0
2018-05-18T14:17:14.931Z,28.6
2018-05-18T14:18:16.477Z,28.3
2018-05-18T14:19:18.243Z,28.1
2018-05-18T14:20:19.698Z,28.1
2018-05-18T14:21:21.487Z,28.2
2018-05-18T14:22:23.261Z,28.0
2018-05-18T14:23:24.759Z,27.8
2018-05-18T14:24:26.262Z,28.2
2018-05-18T14:25:27.704Z,28.5
2018-05-18T14:26:29.175Z,28.5
2018-05-18T14:27:30.664Z,28.3
2018-05-18T14:28:32.143Z,28.3
2018-05-18T14:29:33.579Z,28.4
2018-05-18T14:30:35.105Z,28.4
2018-05-18T14:31:36.568Z,28.6
2018-05-18T14:32:38.378Z,28.3
2018-05-18T14:33:40.210Z,28.6
2018-05-18T14:34:41.655Z,28.5
2018-05-18T14:35:43.190Z,28.6
2018-05-18T14:36:44.664Z,28.8
2018-05-18T14:37:46.433Z,28.7
2018-05-18T14:38:47.869Z,28.7
2018-05-18T14:39:49.644Z,28.4
2018-05-18T14:40:51.455Z,28.5
2018-05-18T14:41:52.921Z,28.2
2018-05-18T14:42:54.680Z,27.7
2018-05-18T14:43:56.769Z,27.2
2018-05-18T14:44:58.134Z,27.4
2018-05-18T14:45:59.618Z,27.4
2018-05-18T14:47:01.089Z,27.2
2018-05-18T14:48:02.519Z,27.1
2018-05-18T14:49:04.027Z,26.9
2018-05-18T14:50:05.447Z,26.5
2018-05-18T14:51:07.236Z,26.2
2018-05-18T14:52:08.947Z,26.2
2018-05-18T14:53:10.534Z,26.2
2018-05-18T14:54:12.286Z,26.0
2018-05-18T14:55:13.806Z,25.6
2018-05-18T14:56:15.341Z,25.7
2018-05-18T14:57:16.804Z,25.5
2018-05-18T14:58:18.758Z,25.5
2018-05-18T14:59:20.262Z,25.6
2018-05-18T15:00:21.746Z,25.4
2018-05-18T15:01:24.108Z,25.2
2018-05-18T15:02:25.667Z,25.0
2018-05-18T15:03:27.217Z,25.2
2018-05-18T15:04:28.630Z,25.1
2018-05-18T15:05:30.337Z,25.3
2018-05-18T15:06:32.132Z,25.2
2018-05-18T15:07:33.857Z,25.5
2018-05-18T15:08:35.604Z,25.5
2018-05-18T15:09:37.376Z,25.3
2018-05-18T15:10:39.277Z,25.4
2018-05-18T15:11:41.073Z,25.6
2018-05-18T15:12:42.784Z,25.6
2018-05-18T15:13:44.278Z,25.6
2018-05-18T15:14:45.806Z,25.6
2018-05-18T15:15:47.284Z,25.5
2018-05-18T15:16:48.790Z,25.6
2018-05-18T15:17:50.234Z,25.6
2018-05-18T15:18:51.763Z,25.4
2018-05-18T15:19:53.212Z,25.3
2018-05-18T15:20:54.676Z,25.1
2018-05-18T15:21:56.199Z,25.0
2018-05-18T15:22:57.656Z,24.8
2018-05-18T15:23:59.348Z,24.6
2018-05-18T15:25:01.118Z,24.3
2018-05-18T15:26:02.893Z,24.3
2018-05-18T15:27:04.666Z,24.2
2018-05-18T15:28:06.187Z,24.4
2018-05-18T15:29:07.833Z,24.1
2018-05-18T15:30:09.635Z,24.1
2018-05-18T15:31:11.129Z,23.9
2018-05-18T15:32:12.578Z,23.8
2018-05-18T15:33:14.326Z,23.6
2018-05-18T15:34:16.597Z,23.5
2018-05-18T15:35:18.857Z,23.5
2018-05-18T15:36:21.105Z,23.5
2018-05-18T15:37:22.887Z,23.3
2018-05-18T15:38:25.354Z,23.0
2018-05-18T15:39:28.902Z,22.9
2018-05-18T15:40:30.588Z,23.0
2018-05-18T15:41:32.970Z,22.9
2018-05-18T15:42:34.790Z,22.9
2018-05-18T15:43:36.593Z,22.8
2018-05-18T15:44:38.434Z,22.8
2018-05-18T15:45:40.155Z,22.8
2018-05-18T15:46:41.999Z,22.7
2018-05-18T15:47:43.777Z,22.5
2018-05-18T15:48:47.479Z,22.5
2018-05-18T15:49:49.149Z,22.4
2018-05-18T15:50:50.939Z,22.2
2018-05-18T15:51:52.709Z,22.2
2018-05-18T15:52:54.488Z,22.2
2018-05-18T15:53:56.200Z,22.1
2018-05-18T15:54:57.929Z,22.2
2018-05-18T15:56:00.116Z,22.2
2018-05-18T15:57:01.889Z,22.2
2018-05-18T15:58:03.688Z,22.1
2018-05-18T15:59:05.582Z,22.1
2018-05-18T16:00:07.353Z,22.1
2018-05-18T16:01:09.121Z,22.1
2018-05-18T16:02:10.855Z,22.1
2018-05-18T16:03:12.606Z,22.1
2018-05-18T16:04:14.478Z,22.1
2018-05-18T16:05:16.382Z,22.0
2018-05-18T16:06:18.191Z,22.1
2018-05-18T16:07:19.945Z,21.8
2018-05-18T16:08:21.666Z,21.7
2018-05-18T16:09:23.473Z,21.8
2018-05-18T16:10:25.304Z,21.6
2018-05-18T16:11:27.100Z,21.6
2018-05-18T16:12:28.914Z,21.5
2018-05-18T16:13:30.785Z,21.4
2018-05-18T16:14:32.585Z,21.2
2018-05-18T16:15:34.210Z,21.2
2018-05-18T16:16:35.960Z,21.1
2018-05-18T16:17:37.794Z,21.1
2018-05-18T16:18:39.622Z,21.0
2018-05-18T16:19:41.397Z,20.9
2018-05-18T16:20:43.167Z,20.9
2018-05-18T16:21:44.961Z,21.0
2018-05-18T16:22:46.681Z,21.0
2018-05-18T16:23:48.515Z,21.1
2018-05-18T16:24:50.395Z,21.0
2018-05-18T16:25:52.230Z,21.1
2018-05-18T16:26:54.088Z,21.2
2018-05-18T16:27:55.899Z,21.1
2018-05-18T16:28:57.646Z,21.1
2018-05-18T16:29:59.537Z,21.2
2018-05-18T16:31:01.220Z,21.1
2018-05-18T16:32:03.023Z,21.0
2018-05-18T16:33:04.791Z,21.0
2018-05-18T16:34:06.620Z,21.1
2018-05-18T16:35:08.431Z,21.2
2018-05-18T16:36:10.219Z,21.3
2018-05-18T16:37:11.864Z,21.2
2018-05-18T16:38:13.758Z,21.1
2018-05-18T16:39:15.515Z,21.2
2018-05-18T16:40:17.309Z,21.2
2018-05-18T16:41:18.936Z,21.1
2018-05-18T16:42:20.645Z,21.1
2018-05-18T16:43:22.284Z,21.0
2018-05-18T16:44:24.232Z,21.0
2018-05-18T16:45:26.067Z,20.9
2018-05-18T16:46:27.941Z,20.9
2018-05-18T16:47:29.657Z,20.8
2018-05-18T16:48:31.519Z,20.6
2018-05-18T16:49:33.262Z,20.6
2018-05-18T16:50:34.959Z,20.5
2018-05-18T16:51:36.643Z,20.5
2018-05-18T16:52:38.317Z,20.4
2018-05-18T16:53:40.263Z,20.4
2018-05-18T16:54:42.067Z,20.5
2018-05-18T16:55:43.869Z,20.4
2018-05-18T16:56:45.551Z,20.3
2018-05-18T16:57:47.297Z,20.2
2018-05-18T16:58:49.047Z,20.1
2018-05-18T16:59:50.734Z,20.2
2018-05-18T17:00:52.543Z,20.2
2018-05-18T17:01:54.282Z,20.2
2018-05-18T17:02:55.957Z,20.2
2018-05-18T17:03:57.862Z,20.2
2018-05-18T17:04:59.567Z,20.1
2018-05-18T17:06:01.211Z,20.2
2018-05-18T17:07:02.979Z,20.1
2018-05-18T17:08:04.716Z,20.2
2018-05-18T17:09:06.544Z,20.1
2018-05-18T17:10:08.328Z,20.0
2018-05-18T17:11:10.116Z,20.0
2018-05-18T17:12:11.825Z,20.0
2018-05-18T17:13:13.550Z,19.8
2018-05-18T17:14:15.352Z,19.8
2018-05-18T17:15:17.141Z,19.8
2018-05-18T17:16:18.817Z,19.6
2018-05-18T17:17:20.639Z,19.6
2018-05-18T17:18:22.433Z,19.6
2018-05-18T17:19:24.231Z,19.6
2018-05-18T17:20:26.057Z,19.6
2018-05-18T17:21:27.894Z,19.6
2018-05-18T17:22:29.605Z,19.6
2018-05-18T17:23:31.304Z,19.5
2018-05-18T17:24:33.145Z,19.6
2018-05-18T17:25:35.005Z,19.7
2018-05-18T17:26:36.803Z,19.4
2018-05-18T17:27:38.476Z,19.6
2018-05-18T17:28:40.234Z,19.6
2018-05-18T17:29:41.916Z,19.7
2018-05-18T17:30:43.740Z,19.5
2018-05-18T17:31:45.528Z,19.7
2018-05-18T17:32:47.306Z,19.6
2018-05-18T17:33:49.060Z,19.5
2018-05-18T17:34:50.795Z,19.5
2018-05-18T17:35:52.535Z,19.5
2018-05-18T17:36:54.318Z,19.6
2018-05-18T17:37:56.047Z,19.5
2018-05-18T17:38:57.790Z,19.5
2018-05-18T17:39:59.553Z,19.5
2018-05-18T17:41:01.199Z,19.4
2018-05-18T17:42:02.921Z,19.4
2018-05-18T17:43:04.590Z,19.4
2018-05-18T17:44:06.437Z,19.3
2018-05-18T17:45:08.075Z,19.4
2018-05-18T17:46:09.847Z,19.3
2018-05-18T17:47:11.579Z,19.4
2018-05-18T17:48:13.859Z,19.3
2018-05-18T17:49:16.327Z,19.3
2018-05-18T17:50:18.073Z,19.2
2018-05-18T17:51:19.916Z,19.3